• Join FlightAware (Why Join?)
  • Login
  • US Flag 
10:15AM EDT


 

Airport Tracker/Info


-or-


 

Live Flight TrackerFlight Track Log ✈ SWA561 ✈ 03-May-2013 ✈ KOAK - KLAX

Flight Track Log - Related Links

Times and Time Zones

All times are in EDT time to prevent confusion due to time zone crossing. See the SWA561 flight status page for this flight to view local times or setup timezone preferences in your user account.

Time Position Orientation Groundspeed Altitude Reporting Facility
EDT Latitude Longitude Course Direction KTS MPH feet Rate Location/Type
07:45PM 37.7333 -122.2667 302° West 175 201 2,100  Level Northern Cal TRACON
07:46PM 37.7667 -122.3333 302° West 255 293 2,900 2,280 Climbing Northern Cal TRACON
07:47PM 37.7667 -122.4333 270° West 290 334 6,700 3,840 Climbing Northern Cal TRACON
07:48PM 37.6833 -122.4667 198° South 310 357 10,600 3,600 Climbing Northern Cal TRACON
07:49PM 37.5833 -122.5000 195° South 362 417 13,900 2,940 Climbing Northern Cal TRACON
07:49PM 37.5700 -122.5083 206° Southwest 354 407 14,400 1,560 Climbing Oakland Center
07:50PM 37.4681 -122.5306 190° South 376 433 16,000 2,220 Climbing Oakland Center
07:51PM 37.3931 -122.4433 137° Southeast 380 437 19,000 3,180 Climbing Oakland Center
07:52PM 37.3061 -122.3167 131° Southeast 399 459 22,600 2,940 Climbing Oakland Center
07:53PM 37.2306 -122.2067 131° Southeast 415 478 25,100 2,340 Climbing Oakland Center
07:54PM 37.1514 -122.0900 130° Southeast 436 502 27,400 2,100 Climbing Oakland Center
07:55PM 37.0692 -121.9711 131° Southeast 450 518 29,500 1,800 Climbing Oakland Center
07:56PM 36.9844 -121.8494 131° Southeast 463 533 31,200 1,860 Climbing Oakland Center
07:57PM 36.8950 -121.7283 133° Southeast 472 543 33,300 1,860 Climbing Oakland Center
07:58PM 36.8117 -121.6114 132° Southeast 471 542 35,100 1,920 Climbing Oakland Center
07:59PM 36.7089 -121.4633 131° Southeast 470 541 37,300 1,860 Climbing Oakland Center
08:00PM 36.6242 -121.3419 131° Southeast 464 534 39,000 780 Climbing Oakland Center
08:01PM 36.5400 -121.2222 131° Southeast 459 528 39,000  Level Oakland Center
08:02PM 36.4553 -121.1025 131° Southeast 461 531 39,000  Level Oakland Center
08:03PM 36.3722 -120.9828 131° Southeast 457 526 39,000  Level Oakland Center
08:04PM 36.2881 -120.8664 132° Southeast 453 521 39,000  Level Oakland Center
08:05PM 36.2050 -120.7497 131° Southeast 449 517 39,000  Level Oakland Center
08:06PM 36.1211 -120.6336 132° Southeast 451 519 39,000  Level Oakland Center
08:07PM 36.0386 -120.5156 131° Southeast 451 519 39,000  Level Oakland Center
08:09PM 35.9550 -120.4008 132° Southeast 446 513 39,000  Level Oakland Center
08:10PM 35.8539 -120.2622 132° Southeast 448 516 39,000  Level Oakland Center
08:11PM 35.7708 -120.1489 132° Southeast 444 511 39,000  Level Oakland Center
08:12PM 35.6869 -120.0339 132° Southeast 445 512 39,000  Level Oakland Center
08:13PM 35.5914 -119.9308 139° Southeast 456 525 39,000  Level Oakland Center
08:14PM 35.4892 -119.8425 145° Southeast 446 513 39,000  Level Oakland Center
08:15PM 35.3872 -119.7553 145° Southeast 445 512 39,000 -120 Level Oakland Center
08:15PM 35.3478 -119.7197 144° Southeast 445 512 38,900 -2,400 Descending Los Angeles Center
08:16PM 35.2458 -119.6325 145° Southeast 444 511 35,600 -2,880 Descending Los Angeles Center
08:17PM 35.1417 -119.5425 145° Southeast 453 521 33,000 -2,340 Descending Los Angeles Center
08:18PM 35.0392 -119.4558 145° Southeast 449 517 30,800 -2,520 Descending Los Angeles Center
08:19PM 34.9239 -119.3572 145° Southeast 429 494 27,900 -2,400 Descending Los Angeles Center
08:20PM 34.8294 -119.2781 145° Southeast 415 478 25,900 -1,920 Descending Los Angeles Center
08:21PM 34.7378 -119.1997 145° Southeast 404 465 24,000 -1,800 Descending Los Angeles Center
08:22PM 34.6503 -119.1261 145° Southeast 386 444 22,200 -1,860 Descending Los Angeles Center
08:23PM 34.5556 -119.0478 146° Southeast 374 430 20,200 -1,860 Descending Los Angeles Center
08:24PM 34.4731 -118.9786 145° Southeast 362 417 18,400 -1,800 Descending Los Angeles Center
08:25PM 34.3939 -118.9111 145° Southeast 350 403 16,500 -1,740 Descending Los Angeles Center
08:26PM 34.3103 -118.8633 155° Southeast 333 383 14,800 -1,740 Descending Los Angeles Center
08:27PM 34.2222 -118.8314 163° South 332 382 13,000 -1,860 Descending Los Angeles Center
08:29PM 34.1219 -118.7903 161° South 317 365 11,000 -1,500 Descending Los Angeles Center
08:30PM 34.0867 -118.6911 113° Southeast 317 365 10,000 -780 Descending Los Angeles Center
08:31PM 34.0531 -118.5886 112° Southeast 302 348 9,400 -840 Descending Los Angeles Center
08:32PM 34.0244 -118.5008 111° Southeast 282 325 8,300 -1,260 Descending Los Angeles Center
08:33PM 34.0136 -118.4214 99° East 275 316 6,800 -1,440 Descending Los Angeles Center
08:34PM 34.0206 -118.3281 85° East 278 320 5,400 -1,200 Descending Los Angeles Center
08:35PM 34.0194 -118.2283 91° East 258 297 4,400 -1,020 Descending Los Angeles Center
08:36PM 33.9672 -118.2403 191° South 214 246 3,300 -1,020 Descending Los Angeles Center
08:37PM 33.9628 -118.2964 265° West 184 212 2,400 -1,020 Descending Los Angeles Center
08:38PM 33.9583 -118.3456 264° West 163 188 1,200 -1,020 Descending Los Angeles Center
08:39PM 33.9544 -118.3869 264° West 143 165 400 -780 Descending Los Angeles Center
08:41PM 33.9333 -118.4000 228° Southwest  Level FlightAware Approximate